Hatley, Wisconsin
Current Conditions -  °F | °C
As of 2:54 AM on Friday 19 Dec 2014 (Local Time) from KAUW Reporting Station
Clear Clear  
Wind Chill:   Ceiling: Unl
Heat Index: 16°   Visibility: 10mi
Dew Point: 13°   Wind: 5mph
Humidity: 88%   Direction: 320°NW
Pressure: 30.24"   Gusts: NA
Location:  44.89°N, 89.34°W
Report Text: KAUW 190854Z AUTO 32004KT 10SM CLR M09/M11 A3024 RMK AO2 SLP267 I1000 I3000 T10891106 51005
Loading
Personal Weather Stations






























Interactive Weather Map New forecast layout! Learn more

10-Day Weather Forecast

Advertisements
Track Severe Weather on mobile